createdAt,value
2018-08-23T00:19:10.311Z,98.70
2018-08-23T00:22:08.907Z,99.90
2018-08-23T00:24:49.887Z,99.90
2018-08-23T00:27:27.644Z,99.90
2018-08-23T00:30:04.053Z,99.90
2018-08-23T00:32:36.556Z,99.90
2018-08-23T00:35:12.161Z,99.90
2018-08-23T00:37:46.779Z,99.90
2018-08-23T00:40:16.385Z,99.90
2018-08-23T00:42:51.245Z,99.90
2018-08-23T00:45:39.952Z,99.90
2018-08-23T00:48:08.579Z,99.90
2018-08-23T00:50:53.552Z,99.90
2018-08-23T00:53:22.128Z,99.90
2018-08-23T00:56:00.455Z,99.90
2018-08-23T00:58:28.913Z,99.90
2018-08-23T01:01:03.345Z,99.90
2018-08-23T01:03:31.891Z,99.90
2018-08-23T01:06:00.878Z,99.90
2018-08-23T01:08:33.861Z,99.90
2018-08-23T01:11:05.563Z,99.90
2018-08-23T02:21:10.163Z,99.90
2018-08-23T02:23:46.614Z,99.90
2018-08-23T02:26:18.033Z,99.90
2018-08-23T02:29:08.290Z,99.90
2018-08-23T02:35:13.846Z,99.90
2018-08-23T02:51:50.915Z,99.90
2018-08-23T02:54:19.635Z,99.90
2018-08-23T02:56:53.644Z,99.90
2018-08-23T02:59:30.529Z,99.90
2018-08-23T03:08:18.932Z,99.90
2018-08-23T03:11:04.577Z,99.90
2018-08-23T03:27:20.186Z,99.90
2018-08-23T03:29:48.577Z,99.90
2018-08-23T03:32:16.898Z,99.90
2018-08-23T03:34:45.273Z,99.90
2018-08-23T03:37:13.907Z,99.90
2018-08-23T03:39:42.097Z,99.90
2018-08-23T03:42:10.461Z,99.90
2018-08-23T03:44:39.420Z,99.90
2018-08-23T03:47:07.728Z,99.90
2018-08-23T03:49:41.301Z,99.90
2018-08-23T03:52:09.543Z,99.90
2018-08-23T03:54:37.779Z,99.90
2018-08-23T03:57:15.842Z,99.90
2018-08-23T03:59:45.170Z,99.90
2018-08-23T04:02:14.386Z,99.90
2018-08-23T04:04:43.380Z,99.90
2018-08-23T04:07:11.683Z,99.90
2018-08-23T04:09:39.961Z,99.90
2018-08-23T04:12:08.672Z,99.90
2018-08-23T04:14:37.121Z,99.90
2018-08-23T04:17:06.989Z,99.90
2018-08-23T04:19:41.220Z,99.90
2018-08-23T04:22:09.616Z,99.90
2018-08-23T04:24:42.468Z,99.90
2018-08-23T04:27:11.565Z,99.90
2018-08-23T04:29:45.837Z,99.90
2018-08-23T04:32:14.420Z,99.90
2018-08-23T04:34:42.605Z,99.90
2018-08-23T04:37:10.957Z,99.90
2018-08-23T04:39:44.742Z,99.90
2018-08-23T04:42:13.333Z,99.90
2018-08-23T04:44:47.775Z,99.90
2018-08-23T04:47:16.791Z,99.90
2018-08-23T04:49:45.278Z,99.90
2018-08-23T04:52:14.019Z,99.90
2018-08-23T04:54:42.513Z,99.90
2018-08-23T04:57:10.915Z,99.90
2018-08-23T04:59:39.422Z,99.90
2018-08-23T05:02:07.726Z,99.90
2018-08-23T05:04:36.097Z,99.90
2018-08-23T05:07:04.906Z,99.90
2018-08-23T05:09:33.313Z,99.90
2018-08-23T05:12:01.602Z,99.90
2018-08-23T05:14:30.422Z,99.90
2018-08-23T05:16:59.142Z,99.90
2018-08-23T05:19:27.977Z,99.90
2018-08-23T05:21:56.473Z,99.90
2018-08-23T05:24:25.044Z,99.90
2018-08-23T05:26:53.363Z,99.90
2018-08-23T05:29:21.752Z,99.90
2018-08-23T05:31:50.140Z,99.90
2018-08-23T05:34:18.449Z,99.90
2018-08-23T05:36:46.796Z,99.90
2018-08-23T05:39:15.087Z,99.90
2018-08-23T05:41:43.438Z,99.90
2018-08-23T05:44:17.169Z,99.90
2018-08-23T05:46:50.321Z,99.90
2018-08-23T05:49:18.624Z,99.90
2018-08-23T05:51:47.716Z,99.90
2018-08-23T05:54:16.180Z,99.90
2018-08-23T05:57:08.048Z,99.90
2018-08-23T05:59:41.605Z,99.90
2018-08-23T06:05:24.516Z,99.90
2018-08-23T06:07:53.418Z,99.90
2018-08-23T06:10:27.178Z,99.90
2018-08-23T06:12:55.943Z,99.90
2018-08-23T06:15:33.515Z,99.90
2018-08-23T06:18:07.444Z,99.90
2018-08-23T06:20:46.140Z,99.90
2018-08-23T06:23:30.657Z,99.90
2018-08-23T06:26:06.329Z,99.90
2018-08-23T06:31:17.076Z,99.90
2018-08-23T06:34:01.055Z,99.90
2018-08-23T06:36:44.031Z,99.90
2018-08-23T06:39:15.374Z,99.90
2018-08-23T06:41:47.108Z,99.90
2018-08-23T06:44:18.308Z,99.90
2018-08-23T06:49:37.247Z,99.90
2018-08-23T06:52:20.267Z,99.90
2018-08-23T06:55:15.914Z,99.90
2018-08-23T07:01:13.975Z,99.90
2018-08-23T07:04:00.095Z,99.90
2018-08-23T07:31:18.081Z,99.90
2018-08-23T07:33:53.459Z,99.90
2018-08-23T07:36:34.236Z,99.90
2018-08-23T07:41:59.074Z,99.90
2018-08-23T07:44:30.047Z,99.90
2018-08-23T07:47:03.851Z,99.90
2018-08-23T07:49:37.731Z,99.90
2018-08-23T07:55:10.650Z,99.90
2018-08-23T07:57:53.947Z,99.90
2018-08-23T08:00:31.240Z,99.90
2018-08-23T08:03:05.514Z,99.90
2018-08-23T08:05:39.693Z,99.90
2018-08-23T08:08:12.628Z,99.90
2018-08-23T08:10:45.186Z,99.90
2018-08-23T08:13:19.860Z,99.90
2018-08-23T08:15:49.542Z,99.90
2018-08-23T08:18:23.696Z,99.90
2018-08-23T08:21:02.242Z,99.90
2018-08-23T08:23:32.798Z,99.90
2018-08-23T08:26:03.682Z,99.90
2018-08-23T08:28:33.656Z,99.90
2018-08-23T08:31:02.766Z,99.90
2018-08-23T08:33:35.509Z,99.90
2018-08-23T08:36:06.200Z,99.90
2018-08-23T08:38:55.825Z,99.90
2018-08-23T08:41:26.194Z,99.90
2018-08-23T08:43:58.101Z,99.90
2018-08-23T08:46:27.828Z,99.90
2018-08-23T08:49:08.030Z,99.90
2018-08-23T08:51:38.387Z,99.90
2018-08-23T08:54:07.695Z,99.90
2018-08-23T08:56:43.936Z,99.90
2018-08-23T09:01:48.074Z,99.90
2018-08-23T09:04:22.063Z,99.90
2018-08-23T09:06:52.450Z,99.90
2018-08-23T09:09:44.269Z,99.90
2018-08-23T09:12:17.023Z,99.90
2018-08-23T09:14:45.742Z,99.90
2018-08-23T09:17:30.882Z,99.90
2018-08-23T09:20:05.685Z,99.90
2018-08-23T09:22:36.843Z,99.90
2018-08-23T09:25:07.509Z,99.90
2018-08-23T09:27:36.714Z,99.90
2018-08-23T09:30:13.796Z,99.90
2018-08-23T09:32:47.137Z,99.90
2018-08-23T09:35:16.531Z,99.90
2018-08-23T09:37:56.003Z,99.90
2018-08-23T09:40:25.629Z,99.90
2018-08-23T09:42:57.194Z,99.90
2018-08-23T09:45:26.455Z,99.90
2018-08-23T09:50:35.962Z,99.90
2018-08-23T09:53:24.450Z,99.90
2018-08-23T09:58:45.021Z,99.90
2018-08-23T10:01:29.961Z,99.90
2018-08-23T10:05:13.328Z,99.90
2018-08-23T10:07:47.856Z,99.90
2018-08-23T10:10:23.524Z,99.90
2018-08-23T10:13:04.891Z,99.90
2018-08-23T10:15:48.077Z,99.90
2018-08-23T10:18:26.018Z,99.90
2018-08-23T10:21:04.959Z,99.90
2018-08-23T10:23:37.777Z,99.90
2018-08-23T10:26:18.565Z,99.90
2018-08-23T10:28:51.531Z,99.90
2018-08-23T10:31:33.150Z,99.90
2018-08-23T10:34:14.173Z,99.90
2018-08-23T10:36:44.635Z,99.90
2018-08-23T10:39:14.972Z,99.90
2018-08-23T10:41:54.404Z,99.90
2018-08-23T10:44:26.088Z,99.90
2018-08-23T10:46:56.279Z,99.90
2018-08-23T10:52:04.831Z,99.90
2018-08-23T10:54:45.382Z,99.90
2018-08-23T10:57:19.858Z,99.90
2018-08-23T11:00:05.288Z,99.90
2018-08-23T11:02:39.792Z,99.90
2018-08-23T11:11:23.961Z,99.90
2018-08-23T11:13:59.755Z,99.90
2018-08-23T11:16:36.478Z,99.90
2018-08-23T11:19:15.130Z,99.90
2018-08-23T11:46:38.650Z,99.90
2018-08-23T11:51:45.733Z,99.30
2018-08-23T11:54:14.269Z,99.10
2018-08-23T11:56:46.927Z,99.20
2018-08-23T12:01:55.917Z,98.90
2018-08-23T12:07:36.781Z,97.90
2018-08-23T12:10:06.988Z,98.40
2018-08-23T12:12:36.509Z,98.40
2018-08-23T12:15:06.133Z,98.30
2018-08-23T12:17:37.003Z,97.70
2018-08-23T12:20:06.241Z,97.40
2018-08-23T12:22:44.950Z,97.80
2018-08-23T12:25:17.014Z,97.90
2018-08-23T12:27:57.388Z,98.20
2018-08-23T12:30:26.322Z,97.90
2018-08-23T12:32:56.771Z,98.30
2018-08-23T12:35:26.026Z,98.30
2018-08-23T12:38:05.275Z,98.20
2018-08-23T12:40:44.480Z,98.60
2018-08-23T12:43:14.188Z,98.60
2018-08-23T12:45:44.796Z,98.30
2018-08-23T12:48:15.857Z,98.20
2018-08-23T12:53:28.058Z,98.20
2018-08-23T12:56:15.029Z,98.10
2018-08-23T13:01:28.348Z,97.80
2018-08-23T13:03:58.488Z,98.00
2018-08-23T13:06:27.275Z,97.90
2018-08-23T13:08:56.678Z,97.40
2018-08-23T13:11:26.151Z,97.20
2018-08-23T13:13:58.384Z,97.10
2018-08-23T13:16:27.235Z,97.10
2018-08-23T13:18:56.065Z,97.00
2018-08-23T13:24:05.758Z,97.00
2018-08-23T13:26:46.286Z,96.80
2018-08-23T13:29:16.463Z,96.10
2018-08-23T13:31:49.896Z,96.60
2018-08-23T13:36:58.968Z,96.10
2018-08-23T13:39:37.682Z,95.90
2018-08-23T13:42:08.649Z,95.50
2018-08-23T13:44:37.780Z,95.40
2018-08-23T13:47:06.345Z,95.30
2018-08-23T13:49:36.746Z,94.90
2018-08-23T13:52:06.799Z,95.00
2018-08-23T13:54:35.635Z,95.00
2018-08-23T13:57:08.020Z,95.20
2018-08-23T13:59:36.767Z,95.40
2018-08-23T14:02:07.204Z,94.80
2018-08-23T14:04:36.327Z,94.70
2018-08-23T14:07:07.264Z,94.60
2018-08-23T14:09:36.637Z,94.30
2018-08-23T14:12:06.927Z,93.70
2018-08-23T14:14:36.276Z,93.50
2018-08-23T14:17:06.598Z,94.30
2018-08-23T14:19:37.257Z,94.10
2018-08-23T14:22:06.828Z,93.70
2018-08-23T14:24:36.908Z,94.10
2018-08-23T14:27:05.833Z,93.80
2018-08-23T14:29:36.233Z,93.60
2018-08-23T14:32:06.742Z,93.50
2018-08-23T14:34:37.306Z,93.80
2018-08-23T14:37:06.816Z,93.50
2018-08-23T14:39:38.600Z,93.60
2018-08-23T14:42:07.345Z,93.20
2018-08-23T14:44:36.695Z,93.20
2018-08-23T14:47:14.784Z,93.20
2018-08-23T14:49:47.366Z,93.40
2018-08-23T14:52:16.484Z,93.50
2018-08-23T14:54:48.187Z,93.40
2018-08-23T14:57:25.621Z,93.30
2018-08-23T14:59:58.695Z,93.10
2018-08-23T15:02:27.307Z,93.00
2018-08-23T15:04:56.560Z,93.10
2018-08-23T15:07:27.544Z,93.50
2018-08-23T15:09:57.012Z,93.40
2018-08-23T15:15:06.825Z,92.60
2018-08-23T15:17:36.970Z,92.70
2018-08-23T15:20:06.992Z,92.90
2018-08-23T15:22:36.451Z,93.10
2018-08-23T15:25:07.401Z,92.80
2018-08-23T15:27:36.905Z,93.00
2018-08-23T15:30:07.386Z,92.80
2018-08-23T15:32:36.764Z,92.90
2018-08-23T15:35:07.225Z,93.00
2018-08-23T15:37:36.064Z,93.10
2018-08-23T15:40:12.963Z,93.20
2018-08-23T15:42:45.230Z,93.30
2018-08-23T15:45:16.077Z,93.40
2018-08-23T15:47:46.359Z,93.50
2018-08-23T15:53:07.946Z,93.50
2018-08-23T15:55:37.033Z,93.80
2018-08-23T15:58:06.416Z,94.00
2018-08-23T16:00:43.462Z,94.20
2018-08-23T16:03:14.661Z,94.50
2018-08-23T16:05:46.907Z,94.70
2018-08-23T16:08:15.510Z,94.90
2018-08-23T16:10:43.934Z,95.20
2018-08-23T16:13:12.406Z,95.50
2018-08-23T16:15:41.819Z,95.60
2018-08-23T16:18:16.190Z,95.80
2018-08-23T16:20:48.007Z,95.80
2018-08-23T16:23:17.334Z,95.90
2018-08-23T16:25:46.612Z,96.40
2018-08-23T16:28:20.185Z,96.10
2018-08-23T16:30:51.105Z,96.00
2018-08-23T16:33:22.408Z,96.20
2018-08-23T16:35:51.441Z,96.20
2018-08-23T16:38:20.881Z,96.20
2018-08-23T16:40:49.612Z,96.20
2018-08-23T16:43:19.822Z,96.40
2018-08-23T16:48:23.079Z,96.50
2018-08-23T16:50:51.688Z,96.40
2018-08-23T16:53:21.581Z,96.60
2018-08-23T16:55:50.824Z,96.80
2018-08-23T16:58:25.185Z,96.70
2018-08-23T17:00:53.686Z,96.80
2018-08-23T17:03:24.261Z,96.90
2018-08-23T17:05:53.303Z,97.00
2018-08-23T17:08:22.091Z,97.00
2018-08-23T17:10:50.498Z,97.20
2018-08-23T17:13:25.598Z,97.30
2018-08-23T17:15:59.385Z,97.40
2018-08-23T17:18:28.804Z,97.50
2018-08-23T17:20:59.667Z,97.70
2018-08-23T17:23:28.677Z,97.80
2018-08-23T17:25:59.209Z,97.80
2018-08-23T17:31:20.302Z,98.20
2018-08-23T17:33:54.509Z,98.30
2018-08-23T17:36:23.452Z,98.40
2018-08-23T17:38:51.927Z,98.30
2018-08-23T17:41:20.597Z,98.30
2018-08-23T17:43:49.732Z,98.50
2018-08-23T17:46:19.483Z,98.60
2018-08-23T17:48:48.433Z,98.60
2018-08-23T17:51:17.322Z,98.60
2018-08-23T17:53:47.180Z,98.70
2018-08-23T17:56:24.644Z,98.70
2018-08-23T17:58:53.729Z,98.70
2018-08-23T18:01:24.874Z,99.00
2018-08-23T18:03:53.947Z,99.00
2018-08-23T18:06:32.829Z,99.10
2018-08-23T18:09:05.503Z,99.10
2018-08-23T18:11:35.683Z,99.00
2018-08-23T18:14:05.104Z,99.20
2018-08-23T18:16:38.880Z,99.30
2018-08-23T18:19:08.737Z,99.40
2018-08-23T18:21:37.273Z,99.30
2018-08-23T18:24:05.981Z,99.40
2018-08-23T18:26:35.516Z,99.50
2018-08-23T18:29:04.237Z,99.60
2018-08-23T18:31:33.321Z,99.60
2018-08-23T18:34:02.849Z,99.60
2018-08-23T18:36:36.158Z,99.70
2018-08-23T18:39:07.958Z,99.80
2018-08-23T18:41:37.165Z,99.90
2018-08-23T18:44:07.772Z,99.90
2018-08-23T18:46:50.628Z,99.90
2018-08-23T18:49:25.962Z,99.90
2018-08-23T18:51:57.017Z,99.90
2018-08-23T18:54:28.165Z,99.90
2018-08-23T18:56:59.432Z,99.90
2018-08-23T18:59:31.755Z,99.90
2018-08-23T19:02:02.641Z,99.90
2018-08-23T19:04:36.623Z,99.90
2018-08-23T19:07:10.861Z,99.90
2018-08-23T19:09:41.291Z,99.90
2018-08-23T19:12:10.048Z,99.90
2018-08-23T19:14:39.742Z,99.90
2018-08-23T19:17:14.235Z,99.90
2018-08-23T19:19:47.256Z,99.90
2018-08-23T19:22:37.649Z,99.90
2018-08-23T19:25:12.500Z,99.90
2018-08-23T19:27:42.588Z,99.90
2018-08-23T19:30:18.568Z,99.90
2018-08-23T19:32:50.171Z,99.90
2018-08-23T19:35:18.885Z,99.90
2018-08-23T19:37:47.899Z,99.90
2018-08-23T19:40:18.051Z,99.90
2018-08-23T19:42:52.141Z,99.90
2018-08-23T19:45:20.574Z,99.90
2018-08-23T19:47:53.876Z,99.90
2018-08-23T19:50:23.848Z,99.90
2018-08-23T19:52:52.403Z,99.90
2018-08-23T19:55:20.984Z,99.90
2018-08-23T19:57:55.753Z,99.90
2018-08-23T20:00:26.030Z,99.90
2018-08-23T20:02:54.655Z,99.90
2018-08-23T20:05:23.139Z,99.90
2018-08-23T20:07:51.700Z,99.90
2018-08-23T20:10:20.284Z,99.90
2018-08-23T20:12:48.814Z,99.90
2018-08-23T20:15:21.598Z,99.90
2018-08-23T20:17:50.771Z,99.90
2018-08-23T20:20:19.406Z,99.90
2018-08-23T20:22:49.096Z,99.90
2018-08-23T20:25:18.246Z,99.90
2018-08-23T20:27:47.144Z,99.90
2018-08-23T20:30:16.390Z,99.90
2018-08-23T20:32:45.954Z,99.90
2018-08-23T20:35:14.597Z,99.90
2018-08-23T20:37:42.968Z,99.90
2018-08-23T20:40:11.621Z,99.90
2018-08-23T20:42:40.618Z,99.90
2018-08-23T20:45:09.103Z,99.90
2018-08-23T20:47:37.480Z,99.90
2018-08-23T20:50:05.747Z,99.90
2018-08-23T20:52:34.202Z,99.90
2018-08-23T20:55:02.637Z,99.90
2018-08-23T20:57:31.341Z,99.90
2018-08-23T21:00:00.110Z,99.90
2018-08-23T21:02:28.952Z,99.90
2018-08-23T21:04:57.331Z,99.90
2018-08-23T21:07:25.728Z,99.90
2018-08-23T21:09:54.675Z,99.90
2018-08-23T21:12:23.000Z,99.90
2018-08-23T21:14:51.301Z,99.90
2018-08-23T21:17:19.664Z,99.90
2018-08-23T21:19:48.430Z,99.90
2018-08-23T21:22:16.997Z,99.90
2018-08-23T21:24:45.536Z,99.90
2018-08-23T21:27:13.742Z,99.90
2018-08-23T21:29:42.113Z,99.90
2018-08-23T21:32:10.426Z,99.90
2018-08-23T21:34:38.844Z,99.90
2018-08-23T21:37:07.250Z,99.90
2018-08-23T21:39:35.624Z,99.90
2018-08-23T21:42:03.950Z,99.90
2018-08-23T21:44:32.976Z,99.90
2018-08-23T21:47:01.763Z,99.90
2018-08-23T21:49:30.925Z,99.90
2018-08-23T21:51:59.513Z,99.90
2018-08-23T21:54:34.576Z,99.90
2018-08-23T21:57:04.258Z,99.90
2018-08-23T21:59:32.788Z,99.90
2018-08-23T22:02:06.814Z,99.90
2018-08-23T22:04:39.595Z,99.90
2018-08-23T22:07:08.682Z,99.90
2018-08-23T22:09:37.247Z,99.90
2018-08-23T22:12:06.166Z,99.90
2018-08-23T22:14:34.625Z,99.90
2018-08-23T22:17:03.366Z,99.90
2018-08-23T22:19:31.874Z,99.90
2018-08-23T22:22:00.541Z,99.90
2018-08-23T22:24:29.531Z,99.90
2018-08-23T22:26:58.133Z,99.90
2018-08-23T22:29:26.410Z,99.90
2018-08-23T22:31:54.869Z,99.90
2018-08-23T22:34:23.405Z,99.90
2018-08-23T22:36:52.046Z,99.90
2018-08-23T22:39:20.509Z,99.90
2018-08-23T22:41:49.049Z,99.90
2018-08-23T22:44:17.680Z,99.90
2018-08-23T22:46:46.920Z,99.90
2018-08-23T22:49:15.353Z,99.90
2018-08-23T22:51:43.774Z,99.90
2018-08-23T22:54:12.277Z,99.90
2018-08-23T22:56:40.797Z,99.90
2018-08-23T22:59:09.286Z,99.90
2018-08-23T23:01:37.770Z,99.90
2018-08-23T23:04:11.538Z,99.90
2018-08-23T23:06:39.801Z,99.90
2018-08-23T23:09:10.969Z,99.90
2018-08-23T23:11:39.381Z,99.90
2018-08-23T23:14:07.841Z,99.90
2018-08-23T23:16:36.338Z,99.90
2018-08-23T23:19:05.145Z,99.90
2018-08-23T23:21:33.488Z,99.90
2018-08-23T23:24:02.259Z,99.90
2018-08-23T23:26:30.607Z,99.90
2018-08-23T23:28:58.933Z,99.90
2018-08-23T23:31:27.486Z,99.90
2018-08-23T23:33:55.912Z,99.90
2018-08-23T23:36:24.309Z,99.90
2018-08-23T23:38:52.722Z,99.90
2018-08-23T23:41:21.105Z,99.90
2018-08-23T23:43:49.381Z,99.90
2018-08-23T23:46:17.884Z,99.90
2018-08-23T23:48:46.228Z,99.90
2018-08-23T23:51:14.739Z,99.90
2018-08-23T23:53:42.976Z,99.90
2018-08-23T23:56:11.310Z,99.90
2018-08-23T23:58:39.701Z,99.90
